aviador You're here:

KRCM Decoded Metar

in _UNIDENTIFIED
Report Time2017-11-24 02:15:00
UTC Time2017-11-24 01:59:08
Flight Rules vfr VFR
Wind200° at 06 kt
W.Decomp.*RWY 18: 5.8 kt HW 1.3 kt RCW
RWY 13: 2.7 kt HW 5.3 kt RCW
W.Rank200° ranks 7
Current wind is below 200° avg. (8.4)
Visibility9999 m
Phenomena:N/A
Clouds:N/A
Expected CloudBase > 2,400 ft AGL from Temp-Dew spread
CeilingNone
Temp07°C (ISA -6)
Dew Point01°C (66% RH)
AAT3.0°C
QNH1014 hPa
Density Alt92 ft
Elevation801 ft
Report Wrong Elevation
Raw Report
KRCM 240215Z AUTO 20006KT 10SM CLR 07/01 A2995 RMK AO2=

Extra information for KRCM:More info

Metar Taf Metar & Taf Last 4 Metars F.Rules Stats Wind Profile Meteogram Temp Stats Metar ALERT Operation Metar Decoded Social comments